首页
METAR-TAF:

METAR-TAF

机场 :

蓋恩斯維爾, 佛罗里达州, 美国

纬度: 29-41-31N, 经度: 082-16-32W, 海拔: 46米

当前天气观测

该预报发布于55分钟前的14:53 UTC
静风
温度 31°C
湿度 66%
气压 1016 hPa
能見度: 16.1公里
散云层高于3300英尺

METAR: KGNV 241453Z 00000KT 10SM SCT033 31/24 A3001 RMK AO2 SLP156 T03060239 53003

时间: 11:48 (15:48 UTC)

预报

该预报发布于4小时和28分钟前的11:20 UTC
预报有效从24日的 12点(UTC)到 25日的 12点(UTC)
风速4节,风向南转西南
能見度: 10公里
散云层高于2500英尺
多云层高于7000英尺
多云层高于12000英尺
附近有阵雨
从 24日的 1400点(UTC)
风速6节,风向西南
能見度: 10公里
少量云层高于3000英尺
少量云层高于12000英尺
少量云层高于25000英尺
从 24日的 1900点(UTC)
风速9节,风向西南
能見度: 10公里
散云层高于5000英尺, 积雨云.
多云层高于12000英尺
多云层高于25000英尺
附近有雷暴
从 25日的 0200点(UTC)
风速4节,风向南转西南
能見度: 10公里
散云层高于5000英尺
多云层高于12000英尺
多云层高于25000英尺
附近有阵雨
从 25日的 0700点(UTC)
风速2节,风向西南
能見度: 10公里
散云层高于5000英尺
多云层高于15000英尺
短暂存在
从 25日的 09点(UTC)到 25日的 11点(UTC)
能見度: 8.0公里
轻雾,

TAF: KGNV 241120Z 2412/2512 21004KT P6SM VCSH SCT025 BKN070 BKN120 FM241400 22006KT P6SM FEW030 FEW120 FEW250 FM241900 22009KT P6SM VCTS SCT050CB BKN120 BKN250 FM250200 21004KT P6SM VCSH SCT050 BKN120 BKN250 FM250700 23002KT P6SM SCT050 BKN150 TEMPO 2509/2511 5SM BR

超过4000个机场的气象观测和天气预报(METAR&TAF报告)。

可查询的气象台以黄色和红色小点在地图上表示。

将鼠标移到小点上方,可查看气象台名称。

然后点击查看天气观测和预报。

如需切换地图:点击带黑十字的绿色按钮放大地图;点击带横线的绿色按钮缩小地图;或者点击绿色箭头查看邻近地区的地图。


METAR-TAF: